sensor_id;sensor_type;location;lat;lon;timestamp;P1;durP1;ratioP1;P2;durP2;ratioP2
17482;SDS011;8858;52.308;20.994;2023-10-31T00:02:13;15.30;;;9.13;;
17482;SDS011;8858;52.308;20.994;2023-10-31T00:04:41;12.40;;;9.20;;
17482;SDS011;8858;52.308;20.994;2023-10-31T00:07:10;11.97;;;9.10;;
17482;SDS011;8858;52.308;20.994;2023-10-31T00:09:42;14.90;;;9.30;;
17482;SDS011;8858;52.308;20.994;2023-10-31T00:12:11;14.40;;;9.10;;
17482;SDS011;8858;52.308;20.994;2023-10-31T00:14:39;13.53;;;9.00;;
17482;SDS011;8858;52.308;20.994;2023-10-31T00:17:08;15.43;;;9.70;;
17482;SDS011;8858;52.308;20.994;2023-10-31T00:19:37;14.63;;;9.23;;
17482;SDS011;8858;52.308;20.994;2023-10-31T00:22:05;16.20;;;9.50;;
17482;SDS011;8858;52.308;20.994;2023-10-31T00:24:35;12.03;;;9.07;;
17482;SDS011;8858;52.308;20.994;2023-10-31T00:27:03;11.70;;;8.40;;
17482;SDS011;8858;52.308;20.994;2023-10-31T00:29:32;16.07;;;9.20;;
17482;SDS011;8858;52.308;20.994;2023-10-31T00:32:01;13.33;;;9.43;;
17482;SDS011;8858;52.308;20.994;2023-10-31T00:34:34;15.80;;;9.03;;
17482;SDS011;8858;52.308;20.994;2023-10-31T00:37:07;11.10;;;8.77;;
17482;SDS011;8858;52.308;20.994;2023-10-31T00:39:35;14.20;;;8.90;;
17482;SDS011;8858;52.308;20.994;2023-10-31T00:42:04;12.50;;;8.93;;
17482;SDS011;8858;52.308;20.994;2023-10-31T00:44:35;14.23;;;9.43;;
17482;SDS011;8858;52.308;20.994;2023-10-31T00:47:03;11.80;;;8.63;;
17482;SDS011;8858;52.308;20.994;2023-10-31T00:49:34;12.97;;;8.40;;
17482;SDS011;8858;52.308;20.994;2023-10-31T00:52:03;11.77;;;7.97;;
17482;SDS011;8858;52.308;20.994;2023-10-31T00:54:32;12.43;;;8.07;;
17482;SDS011;8858;52.308;20.994;2023-10-31T00:57:00;11.67;;;8.10;;
17482;SDS011;8858;52.308;20.994;2023-10-31T00:59:29;13.13;;;8.00;;
17482;SDS011;8858;52.308;20.994;2023-10-31T01:02:21;11.70;;;8.40;;
17482;SDS011;8858;52.308;20.994;2023-10-31T01:04:50;12.77;;;8.13;;
17482;SDS011;8858;52.308;20.994;2023-10-31T01:07:19;12.77;;;8.23;;
17482;SDS011;8858;52.308;20.994;2023-10-31T01:09:47;10.33;;;7.67;;
17482;SDS011;8858;52.308;20.994;2023-10-31T01:12:19;15.70;;;8.07;;
17482;SDS011;8858;52.308;20.994;2023-10-31T01:14:48;10.73;;;7.90;;
17482;SDS011;8858;52.308;20.994;2023-10-31T01:17:16;11.07;;;8.07;;
17482;SDS011;8858;52.308;20.994;2023-10-31T01:19:45;10.63;;;7.77;;
17482;SDS011;8858;52.308;20.994;2023-10-31T01:22:15;12.47;;;7.80;;
17482;SDS011;8858;52.308;20.994;2023-10-31T01:24:47;20.90;;;13.50;;
17482;SDS011;8858;52.308;20.994;2023-10-31T01:27:15;25.13;;;14.30;;
17482;SDS011;8858;52.308;20.994;2023-10-31T01:29:44;15.23;;;8.57;;
17482;SDS011;8858;52.308;20.994;2023-10-31T01:32:13;11.47;;;7.33;;
17482;SDS011;8858;52.308;20.994;2023-10-31T01:34:48;11.47;;;7.27;;
17482;SDS011;8858;52.308;20.994;2023-10-31T01:37:18;10.97;;;7.33;;
17482;SDS011;8858;52.308;20.994;2023-10-31T01:39:48;11.43;;;7.33;;
17482;SDS011;8858;52.308;20.994;2023-10-31T01:42:16;13.63;;;7.60;;
17482;SDS011;8858;52.308;20.994;2023-10-31T01:44:46;11.80;;;7.67;;
17482;SDS011;8858;52.308;20.994;2023-10-31T01:47:18;11.03;;;7.30;;
17482;SDS011;8858;52.308;20.994;2023-10-31T01:49:46;10.93;;;7.47;;
17482;SDS011;8858;52.308;20.994;2023-10-31T01:52:15;11.20;;;7.67;;
17482;SDS011;8858;52.308;20.994;2023-10-31T01:54:47;9.87;;;6.87;;
17482;SDS011;8858;52.308;20.994;2023-10-31T01:57:15;13.47;;;7.90;;
17482;SDS011;8858;52.308;20.994;2023-10-31T01:59:46;8.10;;;6.53;;
17482;SDS011;8858;52.308;20.994;2023-10-31T02:02:16;10.83;;;7.33;;
17482;SDS011;8858;52.308;20.994;2023-10-31T02:05:38;11.97;;;7.53;;
17482;SDS011;8858;52.308;20.994;2023-10-31T02:08:10;9.60;;;6.90;;
17482;SDS011;8858;52.308;20.994;2023-10-31T02:10:41;11.67;;;7.20;;
17482;SDS011;8858;52.308;20.994;2023-10-31T02:13:13;13.23;;;7.37;;
17482;SDS011;8858;52.308;20.994;2023-10-31T02:15:43;10.33;;;6.80;;
17482;SDS011;8858;52.308;20.994;2023-10-31T02:18:12;10.03;;;7.30;;
17482;SDS011;8858;52.308;20.994;2023-10-31T02:20:42;10.27;;;6.73;;
17482;SDS011;8858;52.308;20.994;2023-10-31T02:23:12;12.07;;;7.37;;
17482;SDS011;8858;52.308;20.994;2023-10-31T02:25:43;9.37;;;7.00;;
17482;SDS011;8858;52.308;20.994;2023-10-31T02:28:12;10.00;;;6.97;;
17482;SDS011;8858;52.308;20.994;2023-10-31T02:30:40;11.07;;;7.17;;
17482;SDS011;8858;52.308;20.994;2023-10-31T02:33:12;20.43;;;15.00;;
17482;SDS011;8858;52.308;20.994;2023-10-31T02:35:44;18.70;;;9.97;;
17482;SDS011;8858;52.308;20.994;2023-10-31T02:38:14;10.30;;;6.83;;
17482;SDS011;8858;52.308;20.994;2023-10-31T02:40:43;12.27;;;6.47;;
17482;SDS011;8858;52.308;20.994;2023-10-31T02:43:12;10.80;;;6.43;;
17482;SDS011;8858;52.308;20.994;2023-10-31T02:45:40;10.70;;;6.43;;
17482;SDS011;8858;52.308;20.994;2023-10-31T02:48:09;9.70;;;6.33;;
17482;SDS011;8858;52.308;20.994;2023-10-31T02:50:38;10.13;;;7.07;;
17482;SDS011;8858;52.308;20.994;2023-10-31T02:53:07;11.57;;;6.43;;
17482;SDS011;8858;52.308;20.994;2023-10-31T02:55:37;12.23;;;6.37;;
17482;SDS011;8858;52.308;20.994;2023-10-31T02:58:07;11.73;;;7.20;;
17482;SDS011;8858;52.308;20.994;2023-10-31T03:03:31;7.87;;;6.17;;
17482;SDS011;8858;52.308;20.994;2023-10-31T03:06:04;9.40;;;5.97;;
17482;SDS011;8858;52.308;20.994;2023-10-31T03:08:33;8.93;;;6.30;;
17482;SDS011;8858;52.308;20.994;2023-10-31T03:11:03;8.60;;;5.60;;
17482;SDS011;8858;52.308;20.994;2023-10-31T03:13:32;15.17;;;8.33;;
17482;SDS011;8858;52.308;20.994;2023-10-31T03:16:00;16.03;;;11.50;;
17482;SDS011;8858;52.308;20.994;2023-10-31T03:18:29;8.53;;;6.30;;
17482;SDS011;8858;52.308;20.994;2023-10-31T03:20:58;8.37;;;5.77;;
17482;SDS011;8858;52.308;20.994;2023-10-31T03:23:26;7.80;;;6.10;;
17482;SDS011;8858;52.308;20.994;2023-10-31T03:25:54;9.10;;;5.80;;
17482;SDS011;8858;52.308;20.994;2023-10-31T03:28:24;10.97;;;5.93;;
17482;SDS011;8858;52.308;20.994;2023-10-31T03:30:57;9.20;;;5.87;;
17482;SDS011;8858;52.308;20.994;2023-10-31T03:33:27;8.80;;;5.53;;
17482;SDS011;8858;52.308;20.994;2023-10-31T03:35:55;7.27;;;5.20;;
17482;SDS011;8858;52.308;20.994;2023-10-31T03:38:23;9.87;;;5.60;;
17482;SDS011;8858;52.308;20.994;2023-10-31T03:40:53;8.07;;;5.17;;
17482;SDS011;8858;52.308;20.994;2023-10-31T03:43:21;11.20;;;5.60;;
17482;SDS011;8858;52.308;20.994;2023-10-31T03:45:52;9.37;;;5.67;;
17482;SDS011;8858;52.308;20.994;2023-10-31T03:48:20;8.17;;;5.90;;
17482;SDS011;8858;52.308;20.994;2023-10-31T03:50:49;7.57;;;5.60;;
17482;SDS011;8858;52.308;20.994;2023-10-31T03:53:18;11.97;;;5.70;;
17482;SDS011;8858;52.308;20.994;2023-10-31T03:55:47;6.70;;;5.50;;
17482;SDS011;8858;52.308;20.994;2023-10-31T03:58:16;6.43;;;5.30;;
17482;SDS011;8858;52.308;20.994;2023-10-31T04:00:44;9.60;;;5.33;;
17482;SDS011;8858;52.308;20.994;2023-10-31T04:03:14;7.73;;;5.17;;
17482;SDS011;8858;52.308;20.994;2023-10-31T04:05:44;11.50;;;5.67;;
17482;SDS011;8858;52.308;20.994;2023-10-31T04:08:12;8.20;;;4.93;;
17482;SDS011;8858;52.308;20.994;2023-10-31T04:10:40;6.90;;;4.97;;
17482;SDS011;8858;52.308;20.994;2023-10-31T04:13:09;9.10;;;4.97;;
17482;SDS011;8858;52.308;20.994;2023-10-31T04:15:42;7.03;;;5.07;;
17482;SDS011;8858;52.308;20.994;2023-10-31T04:18:11;7.13;;;4.73;;
17482;SDS011;8858;52.308;20.994;2023-10-31T04:20:41;9.33;;;4.77;;
17482;SDS011;8858;52.308;20.994;2023-10-31T04:23:12;8.00;;;4.40;;
17482;SDS011;8858;52.308;20.994;2023-10-31T04:25:41;8.40;;;4.53;;
17482;SDS011;8858;52.308;20.994;2023-10-31T04:28:10;8.00;;;4.87;;
17482;SDS011;8858;52.308;20.994;2023-10-31T04:30:40;9.03;;;4.87;;
17482;SDS011;8858;52.308;20.994;2023-10-31T04:33:08;6.90;;;4.50;;
17482;SDS011;8858;52.308;20.994;2023-10-31T04:35:41;5.87;;;4.53;;
17482;SDS011;8858;52.308;20.994;2023-10-31T04:38:10;8.07;;;4.43;;
17482;SDS011;8858;52.308;20.994;2023-10-31T04:40:39;5.50;;;4.20;;
17482;SDS011;8858;52.308;20.994;2023-10-31T04:43:07;5.63;;;4.47;;
17482;SDS011;8858;52.308;20.994;2023-10-31T04:45:35;5.40;;;4.20;;
17482;SDS011;8858;52.308;20.994;2023-10-31T04:48:04;6.33;;;4.30;;
17482;SDS011;8858;52.308;20.994;2023-10-31T04:50:33;7.63;;;3.90;;
17482;SDS011;8858;52.308;20.994;2023-10-31T04:53:02;8.77;;;3.90;;
17482;SDS011;8858;52.308;20.994;2023-10-31T04:55:30;6.67;;;3.90;;
17482;SDS011;8858;52.308;20.994;2023-10-31T04:58:00;5.60;;;3.80;;
17482;SDS011;8858;52.308;20.994;2023-10-31T05:00:28;7.70;;;4.10;;
17482;SDS011;8858;52.308;20.994;2023-10-31T05:02:57;5.93;;;4.00;;
17482;SDS011;8858;52.308;20.994;2023-10-31T05:05:27;10.10;;;4.30;;
17482;SDS011;8858;52.308;20.994;2023-10-31T05:07:58;7.57;;;3.60;;
17482;SDS011;8858;52.308;20.994;2023-10-31T05:10:28;8.53;;;3.97;;
17482;SDS011;8858;52.308;20.994;2023-10-31T05:12:57;5.33;;;3.40;;
17482;SDS011;8858;52.308;20.994;2023-10-31T05:15:26;8.37;;;4.30;;
17482;SDS011;8858;52.308;20.994;2023-10-31T05:17:57;5.10;;;3.93;;
17482;SDS011;8858;52.308;20.994;2023-10-31T05:20:25;4.90;;;3.60;;
17482;SDS011;8858;52.308;20.994;2023-10-31T05:22:54;6.43;;;3.93;;
17482;SDS011;8858;52.308;20.994;2023-10-31T05:25:23;7.67;;;3.70;;
17482;SDS011;8858;52.308;20.994;2023-10-31T05:27:53;5.97;;;3.97;;
17482;SDS011;8858;52.308;20.994;2023-10-31T05:30:21;6.53;;;3.60;;
17482;SDS011;8858;52.308;20.994;2023-10-31T05:32:52;5.50;;;3.80;;
17482;SDS011;8858;52.308;20.994;2023-10-31T05:35:21;6.93;;;3.60;;
17482;SDS011;8858;52.308;20.994;2023-10-31T05:37:51;7.40;;;3.83;;
17482;SDS011;8858;52.308;20.994;2023-10-31T05:40:19;4.90;;;3.67;;
17482;SDS011;8858;52.308;20.994;2023-10-31T05:42:49;5.80;;;3.77;;
17482;SDS011;8858;52.308;20.994;2023-10-31T05:45:21;6.10;;;3.27;;
17482;SDS011;8858;52.308;20.994;2023-10-31T05:47:50;10.30;;;3.93;;
17482;SDS011;8858;52.308;20.994;2023-10-31T05:50:19;9.60;;;3.60;;
17482;SDS011;8858;52.308;20.994;2023-10-31T05:52:47;6.13;;;3.50;;
17482;SDS011;8858;52.308;20.994;2023-10-31T05:55:17;11.17;;;3.73;;
17482;SDS011;8858;52.308;20.994;2023-10-31T05:57:48;6.53;;;3.73;;
17482;SDS011;8858;52.308;20.994;2023-10-31T06:00:17;6.33;;;3.70;;
17482;SDS011;8858;52.308;20.994;2023-10-31T06:02:47;11.57;;;3.83;;
17482;SDS011;8858;52.308;20.994;2023-10-31T06:05:16;8.87;;;3.50;;
17482;SDS011;8858;52.308;20.994;2023-10-31T06:07:45;4.80;;;3.27;;
17482;SDS011;8858;52.308;20.994;2023-10-31T06:10:17;6.93;;;3.70;;
17482;SDS011;8858;52.308;20.994;2023-10-31T06:12:47;8.37;;;3.53;;
17482;SDS011;8858;52.308;20.994;2023-10-31T06:15:15;9.37;;;3.63;;
17482;SDS011;8858;52.308;20.994;2023-10-31T06:17:44;5.87;;;3.40;;
17482;SDS011;8858;52.308;20.994;2023-10-31T06:20:13;4.50;;;3.33;;
17482;SDS011;8858;52.308;20.994;2023-10-31T06:22:45;6.53;;;3.40;;
17482;SDS011;8858;52.308;20.994;2023-10-31T06:25:13;9.63;;;3.93;;
17482;SDS011;8858;52.308;20.994;2023-10-31T06:27:45;9.40;;;3.87;;
17482;SDS011;8858;52.308;20.994;2023-10-31T06:30:13;5.57;;;3.07;;
17482;SDS011;8858;52.308;20.994;2023-10-31T06:32:54;5.90;;;3.70;;
17482;SDS011;8858;52.308;20.994;2023-10-31T06:35:24;7.17;;;3.57;;
17482;SDS011;8858;52.308;20.994;2023-10-31T06:37:54;7.80;;;3.87;;
17482;SDS011;8858;52.308;20.994;2023-10-31T06:40:24;7.57;;;3.67;;
17482;SDS011;8858;52.308;20.994;2023-10-31T06:42:52;10.43;;;4.23;;
17482;SDS011;8858;52.308;20.994;2023-10-31T06:45:20;7.43;;;3.60;;
17482;SDS011;8858;52.308;20.994;2023-10-31T06:47:49;6.80;;;3.37;;
17482;SDS011;8858;52.308;20.994;2023-10-31T06:50:17;7.20;;;3.67;;
17482;SDS011;8858;52.308;20.994;2023-10-31T06:52:49;6.20;;;3.73;;
17482;SDS011;8858;52.308;20.994;2023-10-31T06:55:18;7.50;;;3.80;;
17482;SDS011;8858;52.308;20.994;2023-10-31T06:57:48;7.13;;;3.53;;
17482;SDS011;8858;52.308;20.994;2023-10-31T07:00:16;6.60;;;3.67;;
17482;SDS011;8858;52.308;20.994;2023-10-31T07:02:45;6.03;;;3.50;;
17482;SDS011;8858;52.308;20.994;2023-10-31T07:05:14;8.60;;;4.50;;
17482;SDS011;8858;52.308;20.994;2023-10-31T07:07:43;6.50;;;3.37;;
17482;SDS011;8858;52.308;20.994;2023-10-31T07:10:12;5.83;;;3.70;;
17482;SDS011;8858;52.308;20.994;2023-10-31T07:12:41;12.47;;;3.73;;
17482;SDS011;8858;52.308;20.994;2023-10-31T07:15:09;6.67;;;3.33;;
17482;SDS011;8858;52.308;20.994;2023-10-31T07:17:38;5.00;;;3.37;;
17482;SDS011;8858;52.308;20.994;2023-10-31T07:20:06;7.70;;;4.00;;
17482;SDS011;8858;52.308;20.994;2023-10-31T07:22:35;5.33;;;3.60;;
17482;SDS011;8858;52.308;20.994;2023-10-31T07:25:05;6.23;;;3.30;;
17482;SDS011;8858;52.308;20.994;2023-10-31T07:27:35;5.37;;;3.93;;
17482;SDS011;8858;52.308;20.994;2023-10-31T07:30:04;6.73;;;3.70;;
17482;SDS011;8858;52.308;20.994;2023-10-31T07:32:33;9.73;;;3.87;;
17482;SDS011;8858;52.308;20.994;2023-10-31T07:35:01;6.20;;;3.67;;
17482;SDS011;8858;52.308;20.994;2023-10-31T07:37:30;6.57;;;3.40;;
17482;SDS011;8858;52.308;20.994;2023-10-31T07:40:02;7.30;;;3.87;;
17482;SDS011;8858;52.308;20.994;2023-10-31T07:42:32;7.17;;;3.73;;
17482;SDS011;8858;52.308;20.994;2023-10-31T07:45:02;7.00;;;3.80;;
17482;SDS011;8858;52.308;20.994;2023-10-31T07:47:31;5.30;;;3.80;;
17482;SDS011;8858;52.308;20.994;2023-10-31T07:49:59;7.27;;;3.77;;
17482;SDS011;8858;52.308;20.994;2023-10-31T07:52:27;5.57;;;3.80;;
17482;SDS011;8858;52.308;20.994;2023-10-31T07:54:56;7.53;;;3.60;;
17482;SDS011;8858;52.308;20.994;2023-10-31T07:57:24;13.40;;;4.07;;
17482;SDS011;8858;52.308;20.994;2023-10-31T07:59:52;5.67;;;3.90;;
17482;SDS011;8858;52.308;20.994;2023-10-31T08:02:22;4.37;;;3.27;;
17482;SDS011;8858;52.308;20.994;2023-10-31T08:04:50;6.60;;;3.90;;
17482;SDS011;8858;52.308;20.994;2023-10-31T08:07:18;7.03;;;3.87;;
17482;SDS011;8858;52.308;20.994;2023-10-31T08:09:49;8.10;;;4.00;;
17482;SDS011;8858;52.308;20.994;2023-10-31T08:12:17;7.57;;;4.10;;
17482;SDS011;8858;52.308;20.994;2023-10-31T08:14:49;5.13;;;3.80;;
17482;SDS011;8858;52.308;20.994;2023-10-31T08:17:18;7.90;;;3.53;;
17482;SDS011;8858;52.308;20.994;2023-10-31T08:19:47;6.97;;;3.60;;
17482;SDS011;8858;52.308;20.994;2023-10-31T08:22:17;6.90;;;3.47;;
17482;SDS011;8858;52.308;20.994;2023-10-31T08:24:46;6.53;;;3.70;;
17482;SDS011;8858;52.308;20.994;2023-10-31T08:27:17;7.50;;;3.93;;
17482;SDS011;8858;52.308;20.994;2023-10-31T08:29:47;6.93;;;3.67;;
17482;SDS011;8858;52.308;20.994;2023-10-31T08:32:15;5.87;;;3.60;;
17482;SDS011;8858;52.308;20.994;2023-10-31T08:34:43;9.17;;;4.70;;
17482;SDS011;8858;52.308;20.994;2023-10-31T08:37:14;8.70;;;4.43;;
17482;SDS011;8858;52.308;20.994;2023-10-31T08:39:42;9.35;;;3.75;;
17482;SDS011;8858;52.308;20.994;2023-10-31T08:42:10;7.60;;;3.70;;
17482;SDS011;8858;52.308;20.994;2023-10-31T08:44:39;5.78;;;3.28;;
17482;SDS011;8858;52.308;20.994;2023-10-31T08:47:08;4.43;;;3.15;;
17482;SDS011;8858;52.308;20.994;2023-10-31T08:49:39;9.07;;;3.28;;
17482;SDS011;8858;52.308;20.994;2023-10-31T08:52:08;6.80;;;3.30;;
17482;SDS011;8858;52.308;20.994;2023-10-31T08:54:37;10.57;;;3.53;;
17482;SDS011;8858;52.308;20.994;2023-10-31T08:57:06;4.90;;;3.30;;
17482;SDS011;8858;52.308;20.994;2023-10-31T08:59:35;4.65;;;3.00;;
17482;SDS011;8858;52.308;20.994;2023-10-31T09:02:03;6.70;;;3.50;;
17482;SDS011;8858;52.308;20.994;2023-10-31T09:04:35;5.17;;;3.00;;
17482;SDS011;8858;52.308;20.994;2023-10-31T09:07:03;6.45;;;3.22;;
17482;SDS011;8858;52.308;20.994;2023-10-31T09:09:32;3.88;;;2.75;;
17482;SDS011;8858;52.308;20.994;2023-10-31T09:12:03;4.05;;;3.17;;
17482;SDS011;8858;52.308;20.994;2023-10-31T09:14:32;5.07;;;3.20;;
17482;SDS011;8858;52.308;20.994;2023-10-31T09:17:01;9.30;;;2.92;;
17482;SDS011;8858;52.308;20.994;2023-10-31T09:19:31;5.90;;;3.15;;
17482;SDS011;8858;52.308;20.994;2023-10-31T09:21:59;6.90;;;3.60;;
17482;SDS011;8858;52.308;20.994;2023-10-31T09:24:27;6.65;;;3.15;;
17482;SDS011;8858;52.308;20.994;2023-10-31T09:26:56;5.50;;;2.85;;
17482;SDS011;8858;52.308;20.994;2023-10-31T09:29:26;3.67;;;3.03;;
17482;SDS011;8858;52.308;20.994;2023-10-31T09:31:58;5.55;;;2.80;;
17482;SDS011;8858;52.308;20.994;2023-10-31T09:34:26;5.53;;;2.78;;
17482;SDS011;8858;52.308;20.994;2023-10-31T09:36:55;7.75;;;3.00;;
17482;SDS011;8858;52.308;20.994;2023-10-31T09:39:23;6.97;;;3.00;;
17482;SDS011;8858;52.308;20.994;2023-10-31T09:41:52;7.68;;;3.53;;
17482;SDS011;8858;52.308;20.994;2023-10-31T09:44:24;5.47;;;2.83;;
17482;SDS011;8858;52.308;20.994;2023-10-31T09:46:54;9.82;;;2.97;;
17482;SDS011;8858;52.308;20.994;2023-10-31T09:49:25;3.92;;;2.95;;
17482;SDS011;8858;52.308;20.994;2023-10-31T09:51:54;9.43;;;4.18;;
17482;SDS011;8858;52.308;20.994;2023-10-31T09:54:23;8.13;;;4.05;;
17482;SDS011;8858;52.308;20.994;2023-10-31T09:56:53;5.72;;;3.10;;
17482;SDS011;8858;52.308;20.994;2023-10-31T09:59:22;8.15;;;2.95;;
17482;SDS011;8858;52.308;20.994;2023-10-31T10:01:55;6.47;;;3.20;;
17482;SDS011;8858;52.308;20.994;2023-10-31T10:04:24;5.45;;;3.17;;
17482;SDS011;8858;52.308;20.994;2023-10-31T10:06:58;3.45;;;2.75;;
17482;SDS011;8858;52.308;20.994;2023-10-31T10:09:27;3.25;;;2.50;;
17482;SDS011;8858;52.308;20.994;2023-10-31T10:11:57;4.32;;;3.15;;
17482;SDS011;8858;52.308;20.994;2023-10-31T10:14:28;4.13;;;2.72;;
17482;SDS011;8858;52.308;20.994;2023-10-31T10:17:00;4.80;;;3.10;;
17482;SDS011;8858;52.308;20.994;2023-10-31T10:19:30;7.35;;;3.10;;
17482;SDS011;8858;52.308;20.994;2023-10-31T10:21:59;5.22;;;2.58;;
17482;SDS011;8858;52.308;20.994;2023-10-31T10:24:28;6.55;;;3.10;;
17482;SDS011;8858;52.308;20.994;2023-10-31T10:26:57;5.82;;;3.08;;
17482;SDS011;8858;52.308;20.994;2023-10-31T10:29:26;6.35;;;2.88;;
17482;SDS011;8858;52.308;20.994;2023-10-31T10:31:55;5.68;;;3.15;;
17482;SDS011;8858;52.308;20.994;2023-10-31T10:34:26;5.55;;;3.20;;
17482;SDS011;8858;52.308;20.994;2023-10-31T10:36:55;4.05;;;2.72;;
17482;SDS011;8858;52.308;20.994;2023-10-31T10:39:26;7.35;;;3.10;;
17482;SDS011;8858;52.308;20.994;2023-10-31T10:41:55;9.80;;;3.35;;
17482;SDS011;8858;52.308;20.994;2023-10-31T10:44:28;5.63;;;3.08;;
17482;SDS011;8858;52.308;20.994;2023-10-31T10:47:03;4.47;;;3.30;;
17482;SDS011;8858;52.308;20.994;2023-10-31T10:49:35;4.47;;;3.35;;
17482;SDS011;8858;52.308;20.994;2023-10-31T10:52:15;5.68;;;3.13;;
17482;SDS011;8858;52.308;20.994;2023-10-31T10:54:51;6.18;;;3.35;;
17482;SDS011;8858;52.308;20.994;2023-10-31T10:57:24;6.13;;;3.60;;
17482;SDS011;8858;52.308;20.994;2023-10-31T11:00:04;10.18;;;3.38;;
17482;SDS011;8858;52.308;20.994;2023-10-31T11:02:36;5.28;;;3.15;;
17482;SDS011;8858;52.308;20.994;2023-10-31T11:05:12;5.65;;;3.20;;
17482;SDS011;8858;52.308;20.994;2023-10-31T11:07:43;6.85;;;3.22;;
17482;SDS011;8858;52.308;20.994;2023-10-31T11:10:12;5.18;;;2.95;;
17482;SDS011;8858;52.308;20.994;2023-10-31T11:12:41;6.35;;;3.72;;
17482;SDS011;8858;52.308;20.994;2023-10-31T11:15:12;6.13;;;4.00;;
17482;SDS011;8858;52.308;20.994;2023-10-31T11:17:43;5.50;;;2.63;;
17482;SDS011;8858;52.308;20.994;2023-10-31T11:20:14;3.30;;;2.60;;
17482;SDS011;8858;52.308;20.994;2023-10-31T11:22:44;5.60;;;2.50;;
17482;SDS011;8858;52.308;20.994;2023-10-31T11:25:17;7.82;;;2.40;;
17482;SDS011;8858;52.308;20.994;2023-10-31T11:28:11;6.18;;;2.42;;
17482;SDS011;8858;52.308;20.994;2023-10-31T11:30:41;4.97;;;2.25;;
17482;SDS011;8858;52.308;20.994;2023-10-31T11:33:13;6.88;;;2.40;;
17482;SDS011;8858;52.308;20.994;2023-10-31T11:35:45;5.78;;;2.47;;
17482;SDS011;8858;52.308;20.994;2023-10-31T11:38:17;5.15;;;2.10;;
17482;SDS011;8858;52.308;20.994;2023-10-31T11:41:00;5.47;;;2.50;;
17482;SDS011;8858;52.308;20.994;2023-10-31T11:46:22;4.95;;;2.20;;
17482;SDS011;8858;52.308;20.994;2023-10-31T11:48:53;4.63;;;2.60;;
17482;SDS011;8858;52.308;20.994;2023-10-31T11:51:27;6.68;;;2.60;;
17482;SDS011;8858;52.308;20.994;2023-10-31T11:53:56;5.57;;;2.22;;
17482;SDS011;8858;52.308;20.994;2023-10-31T11:56:26;5.93;;;2.40;;
17482;SDS011;8858;52.308;20.994;2023-10-31T11:58:55;2.83;;;2.55;;
17482;SDS011;8858;52.308;20.994;2023-10-31T12:01:25;4.07;;;2.63;;
17482;SDS011;8858;52.308;20.994;2023-10-31T12:03:57;3.08;;;2.65;;
17482;SDS011;8858;52.308;20.994;2023-10-31T12:06:27;4.93;;;2.80;;
17482;SDS011;8858;52.308;20.994;2023-10-31T12:08:59;11.30;;;10.02;;
17482;SDS011;8858;52.308;20.994;2023-10-31T12:11:28;5.53;;;3.53;;
17482;SDS011;8858;52.308;20.994;2023-10-31T12:13:58;9.52;;;2.90;;
17482;SDS011;8858;52.308;20.994;2023-10-31T12:16:28;4.15;;;2.30;;
17482;SDS011;8858;52.308;20.994;2023-10-31T12:18:58;5.40;;;2.47;;
17482;SDS011;8858;52.308;20.994;2023-10-31T12:21:38;4.18;;;2.30;;
17482;SDS011;8858;52.308;20.994;2023-10-31T12:24:09;5.35;;;2.47;;
17482;SDS011;8858;52.308;20.994;2023-10-31T12:26:39;3.92;;;2.47;;
17482;SDS011;8858;52.308;20.994;2023-10-31T12:29:09;3.05;;;2.15;;
17482;SDS011;8858;52.308;20.994;2023-10-31T12:31:44;4.70;;;2.15;;
17482;SDS011;8858;52.308;20.994;2023-10-31T12:34:15;2.58;;;1.90;;
17482;SDS011;8858;52.308;20.994;2023-10-31T12:36:49;3.65;;;1.60;;
17482;SDS011;8858;52.308;20.994;2023-10-31T12:39:20;3.67;;;2.10;;
17482;SDS011;8858;52.308;20.994;2023-10-31T12:41:51;5.78;;;1.90;;
17482;SDS011;8858;52.308;20.994;2023-10-31T12:44:22;3.45;;;1.90;;
17482;SDS011;8858;52.308;20.994;2023-10-31T12:46:53;5.63;;;1.90;;
17482;SDS011;8858;52.308;20.994;2023-10-31T12:49:21;2.78;;;1.70;;
17482;SDS011;8858;52.308;20.994;2023-10-31T12:52:01;3.58;;;2.08;;
17482;SDS011;8858;52.308;20.994;2023-10-31T12:54:33;7.07;;;3.17;;
17482;SDS011;8858;52.308;20.994;2023-10-31T12:57:03;4.80;;;2.60;;
17482;SDS011;8858;52.308;20.994;2023-10-31T12:59:34;5.50;;;2.33;;
17482;SDS011;8858;52.308;20.994;2023-10-31T13:02:06;2.25;;;1.50;;
17482;SDS011;8858;52.308;20.994;2023-10-31T13:04:40;1.88;;;1.67;;
17482;SDS011;8858;52.308;20.994;2023-10-31T13:07:10;3.83;;;1.67;;
17482;SDS011;8858;52.308;20.994;2023-10-31T13:09:38;3.78;;;1.80;;
17482;SDS011;8858;52.308;20.994;2023-10-31T13:12:09;4.57;;;1.60;;
17482;SDS011;8858;52.308;20.994;2023-10-31T13:14:38;12.75;;;8.43;;
17482;SDS011;8858;52.308;20.994;2023-10-31T13:17:06;3.95;;;1.73;;
17482;SDS011;8858;52.308;20.994;2023-10-31T13:19:34;1.33;;;1.33;;
17482;SDS011;8858;52.308;20.994;2023-10-31T13:22:05;1.40;;;1.30;;
17482;SDS011;8858;52.308;20.994;2023-10-31T13:24:34;1.70;;;1.60;;
17482;SDS011;8858;52.308;20.994;2023-10-31T13:27:03;3.17;;;1.45;;
17482;SDS011;8858;52.308;20.994;2023-10-31T13:29:32;3.22;;;1.73;;
17482;SDS011;8858;52.308;20.994;2023-10-31T13:32:01;4.82;;;1.70;;
17482;SDS011;8858;52.308;20.994;2023-10-31T13:34:30;2.03;;;1.50;;
17482;SDS011;8858;52.308;20.994;2023-10-31T13:37:03;5.35;;;2.22;;
17482;SDS011;8858;52.308;20.994;2023-10-31T13:39:31;2.95;;;2.30;;
17482;SDS011;8858;52.308;20.994;2023-10-31T13:42:01;4.10;;;2.13;;
17482;SDS011;8858;52.308;20.994;2023-10-31T13:44:29;3.15;;;1.98;;
17482;SDS011;8858;52.308;20.994;2023-10-31T13:46:57;2.83;;;1.70;;
17482;SDS011;8858;52.308;20.994;2023-10-31T13:49:25;2.67;;;1.50;;
17482;SDS011;8858;52.308;20.994;2023-10-31T13:51:56;2.60;;;1.58;;
17482;SDS011;8858;52.308;20.994;2023-10-31T13:54:25;4.57;;;1.70;;
17482;SDS011;8858;52.308;20.994;2023-10-31T13:56:56;1.88;;;1.75;;
17482;SDS011;8858;52.308;20.994;2023-10-31T13:59:26;2.33;;;1.85;;
17482;SDS011;8858;52.308;20.994;2023-10-31T14:01:55;2.15;;;1.50;;
17482;SDS011;8858;52.308;20.994;2023-10-31T14:04:25;2.10;;;1.38;;
17482;SDS011;8858;52.308;20.994;2023-10-31T14:06:56;2.03;;;1.50;;
17482;SDS011;8858;52.308;20.994;2023-10-31T14:09:25;2.10;;;1.90;;
17482;SDS011;8858;52.308;20.994;2023-10-31T14:11:53;1.40;;;1.23;;
17482;SDS011;8858;52.308;20.994;2023-10-31T14:14:21;2.83;;;1.20;;
17482;SDS011;8858;52.308;20.994;2023-10-31T14:16:51;2.05;;;1.35;;
17482;SDS011;8858;52.308;20.994;2023-10-31T14:19:19;1.30;;;1.20;;
17482;SDS011;8858;52.308;20.994;2023-10-31T14:21:49;1.83;;;1.50;;
17482;SDS011;8858;52.308;20.994;2023-10-31T14:24:19;1.55;;;1.30;;
17482;SDS011;8858;52.308;20.994;2023-10-31T14:26:48;1.23;;;1.13;;
17482;SDS011;8858;52.308;20.994;2023-10-31T14:29:17;2.30;;;1.20;;
17482;SDS011;8858;52.308;20.994;2023-10-31T14:31:45;1.92;;;1.10;;
17482;SDS011;8858;52.308;20.994;2023-10-31T14:34:14;1.95;;;1.85;;
17482;SDS011;8858;52.308;20.994;2023-10-31T14:36:44;1.27;;;1.10;;
17482;SDS011;8858;52.308;20.994;2023-10-31T14:39:12;1.30;;;1.20;;
17482;SDS011;8858;52.308;20.994;2023-10-31T14:41:40;1.42;;;1.33;;
17482;SDS011;8858;52.308;20.994;2023-10-31T14:44:10;1.40;;;1.33;;
17482;SDS011;8858;52.308;20.994;2023-10-31T14:46:38;1.58;;;1.48;;
17482;SDS011;8858;52.308;20.994;2023-10-31T14:49:06;1.55;;;1.45;;
17482;SDS011;8858;52.308;20.994;2023-10-31T14:51:37;3.47;;;1.75;;
17482;SDS011;8858;52.308;20.994;2023-10-31T14:54:10;1.60;;;1.50;;
17482;SDS011;8858;52.308;20.994;2023-10-31T14:56:37;1.65;;;1.15;;
17482;SDS011;8858;52.308;20.994;2023-10-31T14:59:05;2.28;;;2.08;;
17482;SDS011;8858;52.308;20.994;2023-10-31T15:01:34;2.60;;;2.40;;
17482;SDS011;8858;52.308;20.994;2023-10-31T15:04:03;2.85;;;2.08;;
17482;SDS011;8858;52.308;20.994;2023-10-31T15:06:32;3.53;;;1.98;;
17482;SDS011;8858;52.308;20.994;2023-10-31T15:09:06;3.72;;;1.73;;